Time;durP1;ratioP1;P1;durP2;ratioP2;P2;SDS_P1;SDS_P2;PMS_P1;PMS_P2;Temp;Humidity;BMP_temperature;BMP_pressure;BME280_temperature;BME280_humidity;BME280_pressure;Samples;Min_cycle;Max_cycle;Signal;HPM_P1;HPM_P2
2023/11/23 00:01:18;;;;;;;;;29.25;17.25;;;;;;;;5055827;28;45339;-69
2023/11/23 00:03:43;;;;;;;;;14.50;12.50;;;;;;;;5055829;28;45433;-67
2023/11/23 00:06:08;;;;;;;;;22.25;16.75;;;;;;;;5058029;28;45317;-68
2023/11/23 00:08:34;;;;;;;;;27.00;20.25;;;;;;;;5058220;28;45339;-67
2023/11/23 00:11:00;;;;;;;;;19.00;19.00;;;;;;;;5059469;28;45401;-70
2023/11/23 00:13:25;;;;;;;;;23.50;19.50;;;;;;;;5060138;28;45421;-69
2023/11/23 00:15:50;;;;;;;;;22.00;20.75;;;;;;;;5059144;28;46016;-67
2023/11/23 00:18:15;;;;;;;;;23.50;18.25;;;;;;;;5058989;28;45710;-67
2023/11/23 00:20:40;;;;;;;;;21.50;21.00;;;;;;;;5058281;28;45411;-70
2023/11/23 00:23:06;;;;;;;;;17.50;16.50;;;;;;;;5059906;28;45423;-66
2023/11/23 00:25:31;;;;;;;;;10.75;9.00;;;;;;;;5059358;28;46501;-67
2023/11/23 00:27:56;;;;;;;;;22.00;18.67;;;;;;;;5059088;28;45435;-68
2023/11/23 00:30:21;;;;;;;;;23.00;22.00;;;;;;;;5057869;28;45492;-68
2023/11/23 00:32:47;;;;;;;;;20.50;19.75;;;;;;;;5053678;28;45785;-67
2023/11/23 00:35:12;;;;;;;;;20.75;19.75;;;;;;;;5059225;28;47309;-70
2023/11/23 00:37:37;;;;;;;;;28.00;19.50;;;;;;;;5057243;28;45339;-67
2023/11/23 00:40:03;;;;;;;;;22.25;19.75;;;;;;;;5059017;28;45553;-67
2023/11/23 00:42:28;;;;;;;;;22.25;17.00;;;;;;;;5059723;28;45353;-67
2023/11/23 00:44:54;;;;;;;;;18.25;16.75;;;;;;;;5058640;28;45997;-69
2023/11/23 00:47:20;;;;;;;;;17.75;15.25;;;;;;;;5055150;28;45468;-70
2023/11/23 00:49:45;;;;;;;;;19.50;15.75;;;;;;;;5052629;28;45537;-68
2023/11/23 00:52:10;;;;;;;;;13.25;13.25;;;;;;;;5059031;28;45518;-69
2023/11/23 00:54:39;;;;;;;;;14.25;13.75;;;;;;;;5058047;28;47180;-69
2023/11/23 00:57:07;;;;;;;;;13.50;9.75;;;;;;;;5059107;28;45402;-72
2023/11/23 00:59:33;;;;;;;;;15.75;14.25;;;;;;;;5058020;28;45412;-69
2023/11/23 01:02:00;;;;;;;;;11.75;11.75;;;;;;;;5058775;28;45327;-73
2023/11/23 01:04:25;;;;;;;;;13.75;11.25;;;;;;;;5058369;28;47260;-67
2023/11/23 01:06:50;;;;;;;;;15.33;14.33;;;;;;;;5053910;28;45376;-72
2023/11/23 01:09:16;;;;;;;;;13.75;10.50;;;;;;;;5058966;28;45208;-71
2023/11/23 01:11:42;;;;;;;;;16.00;12.75;;;;;;;;5059164;28;45191;-68
2023/11/23 01:14:08;;;;;;;;;16.50;11.75;;;;;;;;5056975;28;47346;-69
2023/11/23 01:16:33;;;;;;;;;15.25;13.00;;;;;;;;5057005;28;45373;-72
2023/11/23 01:18:58;;;;;;;;;11.00;10.25;;;;;;;;5057637;28;45842;-69
2023/11/23 01:21:23;;;;;;;;;13.25;10.00;;;;;;;;5058136;28;45279;-69
2023/11/23 01:23:49;;;;;;;;;15.75;14.00;;;;;;;;5054521;28;47256;-69
2023/11/23 01:26:15;;;;;;;;;13.25;12.00;;;;;;;;5058134;28;45339;-69
2023/11/23 01:28:41;;;;;;;;;9.00;9.00;;;;;;;;5057630;28;45389;-69
2023/11/23 01:31:06;;;;;;;;;14.00;11.25;;;;;;;;5056314;28;45437;-69
2023/11/23 01:33:31;;;;;;;;;14.25;11.00;;;;;;;;5051553;28;45610;-71
2023/11/23 01:35:56;;;;;;;;;10.00;10.00;;;;;;;;5056547;28;45461;-73
2023/11/23 01:38:21;;;;;;;;;16.25;10.75;;;;;;;;5057539;28;45623;-71
2023/11/23 01:40:47;;;;;;;;;14.75;12.25;;;;;;;;5057204;28;45584;-67
2023/11/23 01:43:12;;;;;;;;;14.67;12.33;;;;;;;;5056794;28;46382;-70
2023/11/23 01:45:37;;;;;;;;;14.50;11.00;;;;;;;;5050989;28;45369;-69
2023/11/23 01:48:03;;;;;;;;;12.25;10.50;;;;;;;;5047874;28;45394;-68
2023/11/23 01:50:30;;;;;;;;;13.50;9.75;;;;;;;;5057849;28;45358;-69
2023/11/23 01:52:55;;;;;;;;;15.25;11.75;;;;;;;;5057436;28;47495;-69
2023/11/23 01:55:20;;;;;;;;;13.75;12.25;;;;;;;;5055138;28;45312;-69
2023/11/23 01:57:47;;;;;;;;;10.00;8.25;;;;;;;;5053936;28;45513;-67
2023/11/23 02:00:13;;;;;;;;;15.00;11.50;;;;;;;;5054254;28;45395;-70
2023/11/23 02:02:41;;;;;;;;;10.50;10.00;;;;;;;;5051677;28;46765;-73
2023/11/23 02:05:07;;;;;;;;;11.00;10.00;;;;;;;;5055414;28;45546;-73
2023/11/23 02:07:33;;;;;;;;;12.00;10.25;;;;;;;;5057794;28;45509;-72
2023/11/23 02:09:58;;;;;;;;;10.50;10.00;;;;;;;;5057871;28;45526;-69
2023/11/23 02:12:23;;;;;;;;;9.50;9.50;;;;;;;;5052740;28;46507;-71
2023/11/23 02:14:52;;;;;;;;;15.00;11.00;;;;;;;;5056958;28;45409;-68
2023/11/23 02:17:18;;;;;;;;;11.00;9.00;;;;;;;;5057438;28;45272;-69
2023/11/23 02:19:44;;;;;;;;;10.75;9.75;;;;;;;;5057321;28;45382;-71
2023/11/23 02:22:10;;;;;;;;;17.50;12.75;;;;;;;;5056795;28;46655;-71
2023/11/23 02:24:36;;;;;;;;;15.00;11.75;;;;;;;;5052345;28;45533;-73
2023/11/23 02:27:02;;;;;;;;;17.00;12.25;;;;;;;;5040532;28;45447;-69
2023/11/23 02:29:27;;;;;;;;;10.00;9.00;;;;;;;;5053435;28;45462;-70
2023/11/23 02:31:52;;;;;;;;;13.00;9.25;;;;;;;;5050846;28;46362;-69
2023/11/23 02:34:17;;;;;;;;;11.33;11.00;;;;;;;;5055152;28;45418;-71
2023/11/23 02:36:42;;;;;;;;;16.50;9.75;;;;;;;;5055515;28;45269;-71
2023/11/23 02:39:09;;;;;;;;;13.75;10.75;;;;;;;;5056972;28;45454;-72
2023/11/23 02:41:34;;;;;;;;;12.50;10.50;;;;;;;;5052088;28;46474;-69
2023/11/23 02:43:59;;;;;;;;;15.50;11.00;;;;;;;;5057293;28;45283;-70
2023/11/23 02:46:24;;;;;;;;;14.25;11.50;;;;;;;;5056345;28;45342;-69
2023/11/23 02:48:50;;;;;;;;;18.00;10.00;;;;;;;;5047363;28;45598;-70
2023/11/23 02:51:16;;;;;;;;;9.50;9.50;;;;;;;;5056497;28;45580;-69
2023/11/23 02:53:47;;;;;;;;;16.00;10.00;;;;;;;;5051126;28;45114;-69
2023/11/23 02:56:12;;;;;;;;;14.50;11.25;;;;;;;;5044163;28;45306;-69
2023/11/23 02:58:39;;;;;;;;;12.25;10.25;;;;;;;;5055730;28;45618;-71
2023/11/23 03:01:05;;;;;;;;;11.00;9.50;;;;;;;;5056643;28;46599;-69
2023/11/23 03:03:30;;;;;;;;;16.25;10.00;;;;;;;;5055138;28;45418;-71
2023/11/23 03:05:58;;;;;;;;;11.75;9.50;;;;;;;;5057013;28;45363;-72
2023/11/23 03:08:23;;;;;;;;;4.67;4.00;;;;;;;;5054077;28;46305;-69
2023/11/23 03:10:48;;;;;;;;;10.33;9.67;;;;;;;;5045390;28;45493;-72
2023/11/23 03:13:13;;;;;;;;;15.67;13.33;;;;;;;;5052743;28;45314;-69
2023/11/23 03:15:39;;;;;;;;;11.75;9.00;;;;;;;;5051777;28;45391;-70
2023/11/23 03:18:04;;;;;;;;;14.75;12.00;;;;;;;;5056543;28;45303;-69
2023/11/23 03:20:31;;;;;;;;;12.00;10.00;;;;;;;;5056341;28;46369;-69
2023/11/23 03:22:56;;;;;;;;;10.00;9.00;;;;;;;;5052240;28;45369;-69
2023/11/23 03:25:21;;;;;;;;;9.50;9.25;;;;;;;;5056596;28;45346;-72
2023/11/23 03:27:46;;;;;;;;;11.00;9.67;;;;;;;;5055255;28;45440;-69
2023/11/23 03:30:11;;;;;;;;;11.00;9.00;;;;;;;;5053933;28;46586;-69
2023/11/23 03:32:37;;;;;;;;;10.00;10.00;;;;;;;;5054804;28;45403;-70
2023/11/23 03:35:03;;;;;;;;;15.00;9.00;;;;;;;;5057076;28;45267;-73
2023/11/23 03:37:29;;;;;;;;;8.25;8.25;;;;;;;;5054864;28;45287;-70
2023/11/23 03:39:54;;;;;;;;;8.00;8.00;;;;;;;;5053578;28;45426;-72
2023/11/23 03:42:20;;;;;;;;;11.75;10.00;;;;;;;;5052602;28;45271;-69
2023/11/23 03:44:45;;;;;;;;;10.00;9.00;;;;;;;;5056482;28;45432;-72
2023/11/23 03:47:10;;;;;;;;;13.25;10.25;;;;;;;;5056472;28;45537;-70
2023/11/23 03:49:35;;;;;;;;;14.25;8.00;;;;;;;;5056028;28;47469;-73
2023/11/23 03:52:01;;;;;;;;;12.50;9.00;;;;;;;;5053453;28;45444;-69
2023/11/23 03:54:26;;;;;;;;;10.25;9.25;;;;;;;;5045038;28;45444;-70
2023/11/23 03:56:51;;;;;;;;;12.00;9.25;;;;;;;;5050145;28;45464;-69
2023/11/23 03:59:16;;;;;;;;;9.50;9.25;;;;;;;;5041083;28;46012;-70
2023/11/23 04:01:45;;;;;;;;;16.75;11.50;;;;;;;;5053809;28;45490;-71
2023/11/23 04:04:11;;;;;;;;;8.00;8.00;;;;;;;;5054363;28;45422;-70
2023/11/23 04:06:36;;;;;;;;;9.25;9.25;;;;;;;;5056126;28;45289;-69
2023/11/23 04:09:01;;;;;;;;;11.00;9.00;;;;;;;;5054790;28;45607;-74
2023/11/23 04:11:27;;;;;;;;;9.50;9.25;;;;;;;;5055943;28;45366;-72
2023/11/23 04:13:52;;;;;;;;;3.00;3.00;;;;;;;;5056333;28;45553;-69
2023/11/23 04:16:17;;;;;;;;;10.25;9.00;;;;;;;;5055420;28;45469;-69
2023/11/23 04:18:44;;;;;;;;;9.50;9.00;;;;;;;;5055106;28;46505;-69
2023/11/23 04:21:09;;;;;;;;;9.00;9.00;;;;;;;;5056280;28;45350;-69
2023/11/23 04:23:34;;;;;;;;;10.75;10.50;;;;;;;;5053883;28;45457;-73
2023/11/23 04:26:00;;;;;;;;;12.50;9.00;;;;;;;;5046741;28;45444;-70
2023/11/23 04:28:25;;;;;;;;;10.33;9.00;;;;;;;;5047137;28;47257;-69
2023/11/23 04:30:51;;;;;;;;;10.50;8.50;;;;;;;;5053734;28;45434;-70
2023/11/23 04:33:16;;;;;;;;;10.00;9.25;;;;;;;;5056027;28;45425;-74
2023/11/23 04:35:41;;;;;;;;;9.50;8.50;;;;;;;;5055946;28;45606;-72
2023/11/23 04:38:07;;;;;;;;;9.50;8.75;;;;;;;;5055378;28;47390;-68
2023/11/23 04:40:32;;;;;;;;;7.25;7.25;;;;;;;;5054149;28;45344;-69
2023/11/23 04:42:57;;;;;;;;;8.00;7.00;;;;;;;;5055202;28;45442;-70
2023/11/23 04:45:22;;;;;;;;;9.25;8.50;;;;;;;;5055889;28;45524;-69
2023/11/23 04:47:47;;;;;;;;;10.75;9.25;;;;;;;;5054636;28;46509;-70
2023/11/23 04:50:13;;;;;;;;;10.00;8.67;;;;;;;;5055899;28;45339;-69
2023/11/23 04:52:38;;;;;;;;;11.75;10.50;;;;;;;;5058088;28;45624;-70
2023/11/23 04:55:04;;;;;;;;;14.00;8.75;;;;;;;;5059567;28;45533;-69
2023/11/23 04:57:29;;;;;;;;;12.00;9.00;;;;;;;;5059408;28;46404;-69
2023/11/23 04:59:55;;;;;;;;;8.00;8.00;;;;;;;;5059403;28;45410;-73
2023/11/23 05:02:20;;;;;;;;;9.00;7.67;;;;;;;;5059013;28;45394;-71
2023/11/23 05:04:46;;;;;;;;;8.00;8.00;;;;;;;;5053571;28;45619;-72
2023/11/23 05:07:11;;;;;;;;;11.33;7.00;;;;;;;;5055846;28;48522;-69
2023/11/23 05:09:36;;;;;;;;;8.00;8.00;;;;;;;;5058510;28;45347;-69
2023/11/23 05:12:01;;;;;;;;;9.00;9.00;;;;;;;;5056854;28;45294;-69
2023/11/23 05:14:26;;;;;;;;;7.00;7.00;;;;;;;;5058995;28;45449;-69
2023/11/23 05:16:52;;;;;;;;;9.00;9.00;;;;;;;;5058338;28;46374;-69
2023/11/23 05:19:19;;;;;;;;;10.67;8.33;;;;;;;;5058090;28;45286;-72
2023/11/23 05:21:45;;;;;;;;;8.67;8.00;;;;;;;;5058638;28;45324;-69
2023/11/23 05:24:10;;;;;;;;;12.33;8.00;;;;;;;;5057180;28;45459;-73
2023/11/23 05:26:35;;;;;;;;;15.33;10.00;;;;;;;;5058308;28;46530;-69
2023/11/23 05:29:00;;;;;;;;;9.00;8.00;;;;;;;;5056918;28;45331;-69
2023/11/23 05:31:25;;;;;;;;;10.00;8.00;;;;;;;;5048606;28;45439;-71
2023/11/23 05:33:52;;;;;;;;;12.00;7.67;;;;;;;;5053578;28;45303;-69
2023/11/23 05:36:18;;;;;;;;;8.25;8.00;;;;;;;;5051855;28;46412;-71
2023/11/23 05:38:43;;;;;;;;;8.00;8.00;;;;;;;;5057863;28;45517;-73
2023/11/23 05:41:08;;;;;;;;;8.33;6.67;;;;;;;;5055691;28;45463;-70
2023/11/23 05:43:33;;;;;;;;;9.00;9.00;;;;;;;;5058033;28;45422;-71
2023/11/23 05:45:58;;;;;;;;;5.00;5.00;;;;;;;;5052847;28;46343;-72
2023/11/23 05:48:24;;;;;;;;;8.67;7.67;;;;;;;;5057695;28;45397;-70
2023/11/23 05:50:49;;;;;;;;;7.67;7.67;;;;;;;;5056500;28;45431;-69
2023/11/23 05:53:14;;;;;;;;;9.33;9.00;;;;;;;;5055485;28;45641;-68
2023/11/23 05:55:40;;;;;;;;;7.00;7.00;;;;;;;;5049577;28;45758;-69
2023/11/23 05:58:05;;;;;;;;;10.00;10.00;;;;;;;;5052397;28;45477;-69
2023/11/23 06:00:31;;;;;;;;;8.00;6.67;;;;;;;;5055117;28;45287;-69
2023/11/23 06:02:56;;;;;;;;;6.00;6.00;;;;;;;;5054881;28;45536;-71
2023/11/23 06:05:21;;;;;;;;;11.00;8.00;;;;;;;;5056280;28;46349;-69
2023/11/23 06:07:46;;;;;;;;;9.33;8.00;;;;;;;;5054109;28;45346;-73
2023/11/23 06:10:12;;;;;;;;;9.33;7.33;;;;;;;;5058058;28;45340;-69
2023/11/23 06:12:38;;;;;;;;;7.67;7.67;;;;;;;;5054735;28;45489;-71
2023/11/23 06:15:03;;;;;;;;;9.00;8.00;;;;;;;;5053421;28;46158;-69
2023/11/23 06:17:29;;;;;;;;;8.67;8.00;;;;;;;;5054290;28;45392;-74
2023/11/23 06:19:54;;;;;;;;;8.67;8.00;;;;;;;;5056741;28;45496;-72
2023/11/23 06:22:19;;;;;;;;;10.33;7.00;;;;;;;;5055976;28;45309;-72
2023/11/23 06:24:44;;;;;;;;;9.67;8.00;;;;;;;;5056954;28;45630;-69
2023/11/23 06:27:10;;;;;;;;;8.67;8.00;;;;;;;;5054993;28;45383;-69
2023/11/23 06:29:35;;;;;;;;;9.67;9.00;;;;;;;;5055669;28;45414;-70
2023/11/23 06:32:01;;;;;;;;;11.33;8.00;;;;;;;;5052558;28;45429;-71
2023/11/23 06:34:26;;;;;;;;;13.00;11.00;;;;;;;;5045781;28;47236;-69
2023/11/23 06:36:51;;;;;;;;;11.00;8.67;;;;;;;;5055333;28;45360;-74
2023/11/23 06:39:23;;;;;;;;;10.67;7.67;;;;;;;;5054366;28;45382;-70
2023/11/23 06:41:50;;;;;;;;;7.00;7.00;;;;;;;;5052637;28;45552;-69
2023/11/23 06:44:16;;;;;;;;;8.67;8.00;;;;;;;;5057472;28;45752;-69
2023/11/23 06:46:42;;;;;;;;;13.00;9.00;;;;;;;;5046907;28;45498;-70
2023/11/23 06:49:07;;;;;;;;;13.67;10.67;;;;;;;;5046734;28;45367;-70
2023/11/23 06:51:32;;;;;;;;;11.33;9.33;;;;;;;;5039957;28;45513;-71
2023/11/23 06:53:57;;;;;;;;;10.67;10.67;;;;;;;;5043093;28;46227;-69
2023/11/23 06:56:23;;;;;;;;;12.33;9.00;;;;;;;;5039503;28;45240;-72
2023/11/23 06:58:48;;;;;;;;;16.00;12.67;;;;;;;;5047735;28;45406;-70
2023/11/23 07:01:14;;;;;;;;;6.33;5.00;;;;;;;;5042280;28;45504;-68
2023/11/23 07:03:39;;;;;;;;;9.00;6.33;;;;;;;;5042653;28;47570;-71
2023/11/23 07:06:05;;;;;;;;;9.33;5.00;;;;;;;;5039206;28;45368;-73
2023/11/23 07:08:33;;;;;;;;;10.33;5.33;;;;;;;;5041888;28;45466;-71
2023/11/23 07:10:59;;;;;;;;;10.67;8.33;;;;;;;;5046535;28;45347;-68
2023/11/23 07:13:31;;;;;;;;;9.00;6.67;;;;;;;;5040746;28;47662;-69
2023/11/23 07:15:59;;;;;;;;;6.00;6.00;;;;;;;;5044971;28;47215;-70
2023/11/23 07:18:24;;;;;;;;;8.00;5.67;;;;;;;;5042475;28;46156;-70
2023/11/23 07:20:50;;;;;;;;;6.33;6.33;;;;;;;;5048510;28;45576;-71
2023/11/23 07:23:16;;;;;;;;;8.33;6.33;;;;;;;;5047646;28;45485;-72
2023/11/23 07:25:44;;;;;;;;;9.00;8.00;;;;;;;;5048289;28;45615;-71
2023/11/23 07:28:12;;;;;;;;;9.00;8.00;;;;;;;;5047973;28;46056;-71
2023/11/23 07:30:38;;;;;;;;;8.00;6.33;;;;;;;;5047357;28;45643;-71
2023/11/23 07:33:04;;;;;;;;;8.00;5.33;;;;;;;;5050780;28;46456;-71
2023/11/23 07:35:30;;;;;;;;;10.00;8.00;;;;;;;;5047846;28;45552;-71
2023/11/23 07:37:55;;;;;;;;;11.00;8.00;;;;;;;;5044806;28;46945;-71
2023/11/23 07:40:21;;;;;;;;;5.67;5.00;;;;;;;;5044229;28;45634;-70
2023/11/23 07:42:46;;;;;;;;;8.67;4.67;;;;;;;;5046431;28;45617;-69
2023/11/23 07:45:12;;;;;;;;;8.00;4.67;;;;;;;;5049990;28;45484;-70
2023/11/23 07:47:41;;;;;;;;;11.00;9.00;;;;;;;;5045678;28;45433;-70
2023/11/23 07:52:32;;;;;;;;;8.33;7.00;;;;;;;;5172523;22;45531;-70
2023/11/23 07:54:57;;;;;;;;;11.00;10.00;;;;;;;;5063420;27;45680;-69
2023/11/23 07:57:23;;;;;;;;;7.33;7.00;;;;;;;;5056326;27;45962;-70
2023/11/23 07:59:48;;;;;;;;;9.00;6.00;;;;;;;;5067913;27;47083;-70
2023/11/23 08:02:14;;;;;;;;;5.00;4.00;;;;;;;;5059761;27;46713;-69
2023/11/23 08:04:39;;;;;;;;;11.00;8.00;;;;;;;;5064456;27;45398;-70
2023/11/23 08:07:04;;;;;;;;;9.00;8.00;;;;;;;;5066532;27;45272;-69
2023/11/23 08:09:29;;;;;;;;;8.00;5.67;;;;;;;;5059599;27;45374;-69
2023/11/23 08:11:57;;;;;;;;;8.67;6.33;;;;;;;;5068224;27;46189;-72
2023/11/23 08:14:22;;;;;;;;;11.67;10.00;;;;;;;;5070512;27;45592;-67
2023/11/23 08:16:47;;;;;;;;;9.33;8.00;;;;;;;;5072385;27;45413;-69
2023/11/23 08:19:14;;;;;;;;;12.33;8.67;;;;;;;;5072364;27;45690;-67
2023/11/23 08:21:40;;;;;;;;;8.00;8.00;;;;;;;;5074838;27;45932;-67
2023/11/23 08:24:05;;;;;;;;;10.33;7.33;;;;;;;;5071710;27;45513;-67
2023/11/23 08:26:31;;;;;;;;;6.33;5.67;;;;;;;;5074160;27;45512;-70
2023/11/23 08:28:56;;;;;;;;;18.75;14.50;;;;;;;;5075735;27;45488;-68
2023/11/23 08:31:24;;;;;;;;;10.00;10.00;;;;;;;;5070486;27;46499;-68
2023/11/23 08:33:49;;;;;;;;;10.33;9.00;;;;;;;;5076212;27;45414;-67
2023/11/23 08:36:15;;;;;;;;;8.67;8.67;;;;;;;;5077401;27;45407;-68
2023/11/23 08:38:40;;;;;;;;;7.33;7.33;;;;;;;;5077417;27;45489;-72
2023/11/23 08:41:05;;;;;;;;;8.67;6.00;;;;;;;;5076925;28;48020;-67
2023/11/23 08:43:31;;;;;;;;;7.33;7.33;;;;;;;;5082137;27;45792;-67
2023/11/23 08:45:56;;;;;;;;;8.67;7.33;;;;;;;;5077440;28;45524;-70
2023/11/23 08:48:22;;;;;;;;;11.00;9.33;;;;;;;;5076204;27;45459;-68
2023/11/23 08:50:49;;;;;;;;;13.33;9.00;;;;;;;;5078038;28;45790;-70
2023/11/23 08:53:15;;;;;;;;;6.00;6.00;;;;;;;;5077971;27;45489;-72
2023/11/23 08:55:40;;;;;;;;;12.00;9.67;;;;;;;;5078485;27;45333;-71
2023/11/23 08:58:05;;;;;;;;;11.00;9.00;;;;;;;;5079573;27;45473;-70
2023/11/23 09:00:32;;;;;;;;;6.00;6.00;;;;;;;;5076623;27;46449;-67
2023/11/23 09:02:58;;;;;;;;;5.67;5.67;;;;;;;;5076514;27;45470;-67
2023/11/23 09:05:23;;;;;;;;;8.00;8.00;;;;;;;;5077337;28;45455;-69
2023/11/23 09:07:48;;;;;;;;;6.67;6.00;;;;;;;;5078005;27;45429;-67
2023/11/23 09:10:14;;;;;;;;;6.00;6.00;;;;;;;;5075894;28;47480;-67
2023/11/23 09:12:39;;;;;;;;;8.00;5.33;;;;;;;;5077618;27;45848;-70
2023/11/23 09:15:07;;;;;;;;;5.00;5.00;;;;;;;;5077978;27;45577;-67
2023/11/23 09:17:35;;;;;;;;;9.67;7.33;;;;;;;;5076464;27;46001;-69
2023/11/23 09:20:00;;;;;;;;;5.00;5.00;;;;;;;;5075928;27;45609;-67
2023/11/23 09:22:26;;;;;;;;;10.67;9.67;;;;;;;;5076567;28;46230;-68
2023/11/23 09:24:51;;;;;;;;;9.00;7.33;;;;;;;;5075025;27;45534;-67
2023/11/23 09:27:17;;;;;;;;;10.33;10.00;;;;;;;;5077004;27;45575;-67
2023/11/23 09:29:42;;;;;;;;;12.33;10.33;;;;;;;;5077108;27;45678;-68
2023/11/23 09:32:08;;;;;;;;;8.33;8.00;;;;;;;;5076390;28;45391;-68
2023/11/23 09:34:34;;;;;;;;;11.00;11.00;;;;;;;;5077688;27;45483;-68
2023/11/23 09:36:59;;;;;;;;;13.33;12.33;;;;;;;;5076207;28;45608;-70
2023/11/23 09:39:24;;;;;;;;;1.00;1.00;;;;;;;;5073226;27;46585;-69
2023/11/23 09:41:49;;;;;;;;;15.67;11.33;;;;;;;;5074726;27;45401;-68
2023/11/23 09:44:16;;;;;;;;;12.00;10.33;;;;;;;;5071465;27;45598;-70
2023/11/23 09:46:43;;;;;;;;;21.33;13.00;;;;;;;;5069500;27;45565;-67
2023/11/23 09:49:11;;;;;;;;;13.00;12.00;;;;;;;;5074721;27;45893;-70
2023/11/23 09:51:36;;;;;;;;;14.33;11.00;;;;;;;;5068582;27;45453;-71
2023/11/23 09:54:03;;;;;;;;;11.33;9.00;;;;;;;;5072510;27;45731;-69
2023/11/23 09:56:28;;;;;;;;;13.67;11.00;;;;;;;;5075976;27;45320;-68
2023/11/23 09:58:53;;;;;;;;;11.33;10.33;;;;;;;;5075764;27;46243;-69
2023/11/23 10:01:19;;;;;;;;;9.67;8.00;;;;;;;;5076639;28;45555;-68
2023/11/23 10:03:47;;;;;;;;;10.00;10.00;;;;;;;;5077328;27;45458;-71
2023/11/23 10:06:12;;;;;;;;;9.33;6.00;;;;;;;;5076522;27;45511;-68
2023/11/23 10:08:39;;;;;;;;;9.33;6.67;;;;;;;;5075592;27;46044;-68
2023/11/23 10:11:05;;;;;;;;;9.33;6.00;;;;;;;;5075936;27;45428;-70
2023/11/23 10:13:30;;;;;;;;;10.00;10.00;;;;;;;;5075796;27;45528;-67
2023/11/23 10:15:55;;;;;;;;;10.33;8.00;;;;;;;;5075960;27;46125;-68
2023/11/23 10:18:20;;;;;;;;;8.67;7.00;;;;;;;;5076434;27;46518;-69
2023/11/23 10:20:51;;;;;;;;;8.00;6.00;;;;;;;;5076127;28;45577;-68
2023/11/23 10:23:20;;;;;;;;;9.00;9.00;;;;;;;;5074391;27;45519;-68
2023/11/23 10:25:46;;;;;;;;;10.00;9.00;;;;;;;;5071653;28;45590;-70
2023/11/23 10:28:11;;;;;;;;;10.33;6.00;;;;;;;;5069854;27;47298;-69
2023/11/23 10:30:37;;;;;;;;;12.33;10.00;;;;;;;;5075286;27;45410;-69
2023/11/23 10:33:04;;;;;;;;;6.33;6.00;;;;;;;;5073449;27;45510;-69
2023/11/23 10:35:38;;;;;;;;;7.67;6.00;;;;;;;;5074066;27;45312;-71
2023/11/23 10:38:03;;;;;;;;;10.33;8.33;;;;;;;;5074782;27;47208;-68
2023/11/23 10:40:29;;;;;;;;;9.33;9.33;;;;;;;;5074760;27;46708;-68
2023/11/23 10:42:55;;;;;;;;;11.00;6.00;;;;;;;;5075290;28;45476;-69
2023/11/23 10:45:21;;;;;;;;;11.00;5.00;;;;;;;;5076772;27;45402;-71
2023/11/23 10:47:47;;;;;;;;;7.67;5.00;;;;;;;;5072369;28;46720;-69
2023/11/23 10:50:13;;;;;;;;;8.33;7.33;;;;;;;;5074753;28;45462;-72
2023/11/23 10:52:41;;;;;;;;;10.00;8.67;;;;;;;;5075762;28;45489;-70
2023/11/23 10:55:07;;;;;;;;;4.67;4.67;;;;;;;;5075086;28;45236;-68
2023/11/23 10:57:32;;;;;;;;;9.67;7.00;;;;;;;;5076245;27;45548;-72
2023/11/23 10:59:58;;;;;;;;;10.67;7.33;;;;;;;;5076940;28;45373;-67
2023/11/23 11:02:24;;;;;;;;;9.33;7.00;;;;;;;;5071536;27;45274;-71
2023/11/23 11:04:49;;;;;;;;;8.67;6.33;;;;;;;;5069252;28;45206;-67
2023/11/23 11:07:15;;;;;;;;;7.33;6.00;;;;;;;;5067706;27;45688;-69
2023/11/23 11:09:41;;;;;;;;;8.67;6.00;;;;;;;;5072853;27;45429;-72
2023/11/23 11:12:07;;;;;;;;;5.67;5.67;;;;;;;;5065462;27;45515;-69
2023/11/23 11:14:36;;;;;;;;;11.67;8.33;;;;;;;;5062594;28;45418;-72
2023/11/23 11:17:02;;;;;;;;;9.67;8.00;;;;;;;;5065124;28;46411;-70
2023/11/23 11:19:28;;;;;;;;;11.00;8.00;;;;;;;;5064057;27;45562;-69
2023/11/23 11:21:58;;;;;;;;;10.33;8.33;;;;;;;;5064391;27;46257;-70
2023/11/23 11:24:26;;;;;;;;;11.67;11.00;;;;;;;;5067667;27;45468;-68
2023/11/23 11:26:58;;;;;;;;;14.33;8.67;;;;;;;;5064931;27;47480;-73
2023/11/23 11:29:23;;;;;;;;;12.00;8.00;;;;;;;;5069087;27;45966;-72
2023/11/23 11:31:49;;;;;;;;;9.00;7.00;;;;;;;;5068872;27;45523;-69
2023/11/23 11:34:17;;;;;;;;;5.00;5.00;;;;;;;;5070608;27;45472;-69
2023/11/23 11:36:43;;;;;;;;;7.33;7.00;;;;;;;;5069048;27;46493;-73
2023/11/23 11:39:10;;;;;;;;;8.33;7.00;;;;;;;;5069392;28;45138;-75
2023/11/23 11:41:37;;;;;;;;;7.00;7.00;;;;;;;;5070338;27;45492;-72
2023/11/23 11:44:04;;;;;;;;;12.67;10.33;;;;;;;;5068664;27;45492;-73
2023/11/23 11:46:29;;;;;;;;;7.00;7.00;;;;;;;;5065245;27;47646;-71
2023/11/23 11:48:57;;;;;;;;;7.33;6.00;;;;;;;;5070976;27;45508;-73
2023/11/23 11:51:23;;;;;;;;;7.67;6.00;;;;;;;;5068715;27;46132;-72
2023/11/23 11:53:49;;;;;;;;;6.67;5.33;;;;;;;;5069982;28;45507;-69
2023/11/23 11:56:15;;;;;;;;;6.67;5.67;;;;;;;;5070029;27;45460;-72
2023/11/23 11:58:40;;;;;;;;;6.67;5.67;;;;;;;;5069854;27;45460;-71
2023/11/23 12:01:08;;;;;;;;;2.67;1.00;;;;;;;;5068582;27;46509;-70
2023/11/23 12:03:33;;;;;;;;;7.67;5.00;;;;;;;;5069595;27;45874;-68
2023/11/23 12:05:58;;;;;;;;;6.00;5.00;;;;;;;;5069413;27;46206;-71
2023/11/23 12:08:31;;;;;;;;;9.33;5.00;;;;;;;;5068426;28;45463;-68
2023/11/23 12:10:56;;;;;;;;;5.33;4.00;;;;;;;;5069288;27;45694;-68
2023/11/23 12:13:25;;;;;;;;;8.67;5.67;;;;;;;;5068800;28;45464;-69
2023/11/23 12:15:54;;;;;;;;;9.00;6.00;;;;;;;;5070285;27;46477;-71
2023/11/23 12:18:29;;;;;;;;;6.33;5.00;;;;;;;;5069110;28;45535;-68
2023/11/23 12:20:55;;;;;;;;;6.00;4.00;;;;;;;;5072628;27;45653;-71
2023/11/23 12:23:20;;;;;;;;;6.33;5.00;;;;;;;;5069625;28;45566;-69
2023/11/23 12:25:48;;;;;;;;;5.00;5.00;;;;;;;;5069574;27;45808;-70
2023/11/23 12:28:13;;;;;;;;;6.00;6.00;;;;;;;;5069254;28;46018;-68
2023/11/23 12:30:38;;;;;;;;;8.00;6.00;;;;;;;;5071098;28;45444;-69
2023/11/23 12:33:05;;;;;;;;;8.33;6.67;;;;;;;;5064887;27;45688;-70
2023/11/23 12:35:30;;;;;;;;;6.33;6.00;;;;;;;;5072546;27;46602;-69
2023/11/23 12:37:55;;;;;;;;;8.00;5.33;;;;;;;;5069204;27;45488;-70
2023/11/23 12:40:21;;;;;;;;;5.00;5.00;;;;;;;;5069954;27;45439;-70
2023/11/23 12:42:47;;;;;;;;;4.33;4.33;;;;;;;;5068921;27;45800;-70
2023/11/23 12:45:12;;;;;;;;;5.67;5.00;;;;;;;;5068949;27;46701;-71
2023/11/23 12:47:38;;;;;;;;;5.00;5.00;;;;;;;;5067325;27;45464;-68
2023/11/23 12:50:05;;;;;;;;;6.00;6.00;;;;;;;;5069712;27;45831;-70
2023/11/23 12:52:32;;;;;;;;;5.67;5.33;;;;;;;;5068018;27;45503;-69
2023/11/23 12:54:59;;;;;;;;;7.33;5.00;;;;;;;;5066982;27;47876;-70
2023/11/23 12:57:26;;;;;;;;;5.67;5.00;;;;;;;;5068343;28;45553;-70
2023/11/23 12:59:52;;;;;;;;;8.00;6.33;;;;;;;;5068927;27;45244;-70
2023/11/23 13:02:17;;;;;;;;;8.00;6.00;;;;;;;;5069158;27;46499;-71
2023/11/23 13:04:42;;;;;;;;;8.33;7.67;;;;;;;;5069209;27;47213;-69
2023/11/23 13:07:08;;;;;;;;;6.00;6.00;;;;;;;;5068806;27;45452;-68
2023/11/23 13:09:33;;;;;;;;;8.00;6.33;;;;;;;;5067254;27;45557;-72
2023/11/23 13:11:58;;;;;;;;;6.33;6.33;;;;;;;;5070157;27;45580;-69
2023/11/23 13:14:23;;;;;;;;;7.33;6.00;;;;;;;;5073123;28;46995;-70
2023/11/23 13:16:49;;;;;;;;;13.33;9.67;;;;;;;;5071250;27;45488;-68
2023/11/23 13:19:14;;;;;;;;;9.00;7.00;;;;;;;;5071705;28;45503;-69
2023/11/23 13:21:41;;;;;;;;;7.67;7.67;;;;;;;;5072649;27;45543;-71
2023/11/23 13:24:07;;;;;;;;;9.00;9.00;;;;;;;;5071128;27;47248;-70
2023/11/23 13:26:32;;;;;;;;;13.00;10.67;;;;;;;;5072473;27;45435;-70
2023/11/23 13:28:58;;;;;;;;;15.00;14.00;;;;;;;;5072564;28;45556;-68
2023/11/23 13:31:23;;;;;;;;;12.33;11.67;;;;;;;;5072571;27;45790;-69
2023/11/23 13:33:49;;;;;;;;;10.67;9.00;;;;;;;;5072269;27;46312;-69
2023/11/23 13:36:14;;;;;;;;;9.00;8.00;;;;;;;;5071215;27;45445;-69
2023/11/23 13:38:40;;;;;;;;;14.33;10.67;;;;;;;;5072010;28;46960;-68
2023/11/23 13:41:09;;;;;;;;;11.00;9.00;;;;;;;;5070294;27;45570;-68
2023/11/23 13:43:35;;;;;;;;;12.00;9.00;;;;;;;;5064589;27;48619;-70
2023/11/23 13:46:00;;;;;;;;;12.33;11.00;;;;;;;;5062752;27;45516;-72
2023/11/23 13:48:27;;;;;;;;;10.33;10.33;;;;;;;;5065062;27;45449;-70
2023/11/23 13:50:52;;;;;;;;;11.00;8.67;;;;;;;;5069832;27;45955;-72
2023/11/23 13:53:20;;;;;;;;;10.33;8.00;;;;;;;;5070870;27;45678;-70
2023/11/23 13:55:45;;;;;;;;;12.67;9.67;;;;;;;;5076328;27;45433;-72
2023/11/23 13:58:10;;;;;;;;;13.00;9.00;;;;;;;;5074464;27;45505;-72
2023/11/23 14:00:36;;;;;;;;;10.33;9.00;;;;;;;;5075217;27;45526;-71
2023/11/23 14:03:01;;;;;;;;;9.67;8.00;;;;;;;;5074019;27;48444;-70
2023/11/23 14:05:26;;;;;;;;;12.00;12.00;;;;;;;;5076712;27;45504;-71
2023/11/23 14:07:53;;;;;;;;;10.00;7.00;;;;;;;;5079262;27;45472;-71
2023/11/23 14:10:19;;;;;;;;;14.00;12.00;;;;;;;;5074010;27;46212;-73
2023/11/23 14:12:44;;;;;;;;;9.67;7.67;;;;;;;;5076799;27;48300;-71
2023/11/23 14:15:10;;;;;;;;;13.00;9.67;;;;;;;;5074793;27;45495;-70
2023/11/23 14:17:35;;;;;;;;;13.33;12.33;;;;;;;;5075493;27;45498;-71
2023/11/23 14:20:01;;;;;;;;;13.00;8.33;;;;;;;;5075855;27;45510;-71
2023/11/23 14:22:27;;;;;;;;;10.00;9.00;;;;;;;;5075887;27;47379;-73
2023/11/23 14:24:53;;;;;;;;;13.00;10.33;;;;;;;;5075143;27;45468;-71